<?xml version="1.0" encoding="UTF-8" standalone="no" ?>
<gpx xmlns="http://www.topografix.com/GPX/1/1" xmlns:xsi="http://www.w3.org/2001/XMLSchema-instance" xsi:schemaLocation="http://www.topografix.com/GPX/1/1 http://www.topografix.com/GPX/1/1/gpx.xsd" version="1.1" creator="VisuGPX - https://www.visugpx.com">
  <metadata>
    <name>Tour de France 2019</name>
    <desc><![CDATA[4272km en 2 mois en tandem avec notre petit chien dans le panier avant]]></desc>
  </metadata>
  <trk>
    <name><![CDATA[Tracé 20191016-103440]]></name>
    <trkseg>
      <trkpt lat="42.72937" lon="9.34222">
        <ele>12.277</ele>
        <time>2019-10-16T08:43:04Z</time>
      </trkpt>
      <trkpt lat="42.72889" lon="9.34183">
        <ele>21.145</ele>
        <time>2019-10-16T08:46:04Z</time>
      </trkpt>
      <trkpt lat="42.72854" lon="9.34059">
        <ele>27.696</ele>
        <time>2019-10-16T08:46:37Z</time>
      </trkpt>
      <trkpt lat="42.72784" lon="9.34033">
        <ele>26.937</ele>
        <time>2019-10-16T08:47:10Z</time>
      </trkpt>
      <trkpt lat="42.72776" lon="9.33876">
        <ele>31.809</ele>
        <time>2019-10-16T08:47:43Z</time>
      </trkpt>
      <trkpt lat="42.72734" lon="9.33743">
        <ele>22.76</ele>
        <time>2019-10-16T08:48:16Z</time>
      </trkpt>
      <trkpt lat="42.72677" lon="9.33672">
        <ele>29.377</ele>
        <time>2019-10-16T08:48:49Z</time>
      </trkpt>
      <trkpt lat="42.72597" lon="9.33499">
        <ele>26.897</ele>
        <time>2019-10-16T08:49:22Z</time>
      </trkpt>
      <trkpt lat="42.72457" lon="9.33517">
        <ele>24.88</ele>
        <time>2019-10-16T08:49:52Z</time>
      </trkpt>
      <trkpt lat="42.72287" lon="9.33787">
        <ele>17.016</ele>
        <time>2019-10-16T08:50:25Z</time>
      </trkpt>
      <trkpt lat="42.72029" lon="9.33819">
        <ele>9.01</ele>
        <time>2019-10-16T08:50:58Z</time>
      </trkpt>
      <trkpt lat="42.7202" lon="9.33639">
        <ele>9.055</ele>
        <time>2019-10-16T08:51:31Z</time>
      </trkpt>
      <trkpt lat="42.71925" lon="9.33553">
        <ele>8.512</ele>
        <time>2019-10-16T08:52:04Z</time>
      </trkpt>
      <trkpt lat="42.71796" lon="9.33507">
        <ele>8.66</ele>
        <time>2019-10-16T08:52:37Z</time>
      </trkpt>
      <trkpt lat="42.71665" lon="9.33543">
        <ele>16.95</ele>
        <time>2019-10-16T08:53:10Z</time>
      </trkpt>
      <trkpt lat="42.71533" lon="9.33618">
        <ele>22.46</ele>
        <time>2019-10-16T08:53:43Z</time>
      </trkpt>
      <trkpt lat="42.7142" lon="9.33695">
        <ele>20.505</ele>
        <time>2019-10-16T08:54:13Z</time>
      </trkpt>
      <trkpt lat="42.71299" lon="9.33784">
        <ele>22.477</ele>
        <time>2019-10-16T08:54:46Z</time>
      </trkpt>
      <trkpt lat="42.71179" lon="9.33873">
        <ele>24.648</ele>
        <time>2019-10-16T08:55:19Z</time>
      </trkpt>
      <trkpt lat="42.71071" lon="9.33957">
        <ele>27.014</ele>
        <time>2019-10-16T08:55:52Z</time>
      </trkpt>
      <trkpt lat="42.70972" lon="9.34028">
        <ele>30.666</ele>
        <time>2019-10-16T08:56:25Z</time>
      </trkpt>
      <trkpt lat="42.70899" lon="9.34121">
        <ele>34.569</ele>
        <time>2019-10-16T08:56:58Z</time>
      </trkpt>
      <trkpt lat="42.70807" lon="9.34186">
        <ele>35.342</ele>
        <time>2019-10-16T08:57:31Z</time>
      </trkpt>
      <trkpt lat="42.70688" lon="9.34232">
        <ele>35.911</ele>
        <time>2019-10-16T08:58:04Z</time>
      </trkpt>
      <trkpt lat="42.7061" lon="9.34276">
        <ele>42.238</ele>
        <time>2019-10-16T08:58:34Z</time>
      </trkpt>
      <trkpt lat="42.70535" lon="9.34338">
        <ele>51.653</ele>
        <time>2019-10-16T08:59:07Z</time>
      </trkpt>
      <trkpt lat="42.70468" lon="9.34413">
        <ele>54.485</ele>
        <time>2019-10-16T08:59:40Z</time>
      </trkpt>
      <trkpt lat="42.70426" lon="9.34507">
        <ele>54.433</ele>
        <time>2019-10-16T09:00:13Z</time>
      </trkpt>
      <trkpt lat="42.70384" lon="9.34617">
        <ele>60.236</ele>
        <time>2019-10-16T09:00:46Z</time>
      </trkpt>
      <trkpt lat="42.70332" lon="9.3474">
        <ele>56.354</ele>
        <time>2019-10-16T09:01:19Z</time>
      </trkpt>
      <trkpt lat="42.70283" lon="9.34857">
        <ele>58.465</ele>
        <time>2019-10-16T09:01:52Z</time>
      </trkpt>
      <trkpt lat="42.70241" lon="9.3496">
        <ele>62.703</ele>
        <time>2019-10-16T09:02:22Z</time>
      </trkpt>
      <trkpt lat="42.70179" lon="9.35043">
        <ele>68.316</ele>
        <time>2019-10-16T09:02:55Z</time>
      </trkpt>
      <trkpt lat="42.70068" lon="9.35091">
        <ele>70.116</ele>
        <time>2019-10-16T09:03:28Z</time>
      </trkpt>
      <trkpt lat="42.69796" lon="9.35128">
        <ele>59.571</ele>
        <time>2019-10-16T09:04:01Z</time>
      </trkpt>
      <trkpt lat="42.69601" lon="9.34988">
        <ele>43.929</ele>
        <time>2019-10-16T09:04:34Z</time>
      </trkpt>
      <trkpt lat="42.69489" lon="9.34692">
        <ele>41.658</ele>
        <time>2019-10-16T09:05:07Z</time>
      </trkpt>
      <trkpt lat="42.69465" lon="9.34244">
        <ele>30.189</ele>
        <time>2019-10-16T09:05:40.001Z</time>
      </trkpt>
      <trkpt lat="42.69449" lon="9.33778">
        <ele>16.625</ele>
        <time>2019-10-16T09:06:13.001Z</time>
      </trkpt>
      <trkpt lat="42.69478" lon="9.33453">
        <ele>11.959</ele>
        <time>2019-10-16T09:06:43.001Z</time>
      </trkpt>
      <trkpt lat="42.69567" lon="9.33282">
        <ele>8.848</ele>
        <time>2019-10-16T09:07:16Z</time>
      </trkpt>
      <trkpt lat="42.69466" lon="9.33096">
        <ele>12.218</ele>
        <time>2019-10-16T09:07:49.001Z</time>
      </trkpt>
      <trkpt lat="42.6934" lon="9.32887">
        <ele>10.26</ele>
        <time>2019-10-16T09:08:22.001Z</time>
      </trkpt>
      <trkpt lat="42.69311" lon="9.32608">
        <ele>6.556</ele>
        <time>2019-10-16T09:08:55.001Z</time>
      </trkpt>
      <trkpt lat="42.69298" lon="9.32343">
        <ele>4.961</ele>
        <time>2019-10-16T09:09:28.001Z</time>
      </trkpt>
      <trkpt lat="42.69221" lon="9.32174">
        <ele>5.004</ele>
        <time>2019-10-16T09:10:01.001Z</time>
      </trkpt>
      <trkpt lat="42.69151" lon="9.32034">
        <ele>9.148</ele>
        <time>2019-10-16T09:10:34.001Z</time>
      </trkpt>
      <trkpt lat="42.69065" lon="9.3185">
        <ele>9.251</ele>
        <time>2019-10-16T09:11:04.001Z</time>
      </trkpt>
      <trkpt lat="42.68908" lon="9.31535">
        <ele>1.683</ele>
        <time>2019-10-16T09:11:37.001Z</time>
      </trkpt>
      <trkpt lat="42.68797" lon="9.31305">
        <ele>3</ele>
        <time>2019-10-16T09:12:10.001Z</time>
      </trkpt>
      <trkpt lat="42.68702" lon="9.31108">
        <ele>1</ele>
        <time>2019-10-16T09:12:43.001Z</time>
      </trkpt>
      <trkpt lat="42.68602" lon="9.30904">
        <ele>4</ele>
        <time>2019-10-16T09:13:16Z</time>
      </trkpt>
      <trkpt lat="42.68526" lon="9.30746">
        <ele>9.6</ele>
        <time>2019-10-16T09:13:49.001Z</time>
      </trkpt>
      <trkpt lat="42.68444" lon="9.30645">
        <ele>3.983</ele>
        <time>2019-10-16T09:14:22.001Z</time>
      </trkpt>
      <trkpt lat="42.68366" lon="9.30558">
        <ele>9.188</ele>
        <time>2019-10-16T09:14:55.001Z</time>
      </trkpt>
      <trkpt lat="42.68259" lon="9.30526">
        <ele>15.979</ele>
        <time>2019-10-16T09:15:25.001Z</time>
      </trkpt>
      <trkpt lat="42.68177" lon="9.3041">
        <ele>14.86</ele>
        <time>2019-10-16T09:17:37.001Z</time>
      </trkpt>
      <trkpt lat="42.68058" lon="9.30246">
        <ele>8.52</ele>
        <time>2019-10-16T09:18:10.001Z</time>
      </trkpt>
      <trkpt lat="42.67926" lon="9.30243">
        <ele>1.6</ele>
        <time>2019-10-16T09:18:43.001Z</time>
      </trkpt>
      <trkpt lat="42.67762" lon="9.30273">
        <ele>1.5</ele>
        <time>2019-10-16T09:19:16Z</time>
      </trkpt>
      <trkpt lat="42.67588" lon="9.30302">
        <ele>1.1</ele>
        <time>2019-10-16T09:19:49.001Z</time>
      </trkpt>
      <trkpt lat="42.67413" lon="9.30224">
        <ele>1</ele>
        <time>2019-10-16T09:20:22.001Z</time>
      </trkpt>
      <trkpt lat="42.67246" lon="9.30142">
        <ele>1.1</ele>
        <time>2019-10-16T09:20:55.001Z</time>
      </trkpt>
      <trkpt lat="42.67186" lon="9.30109">
        <ele>2.8</ele>
        <time>2019-10-16T09:21:25.001Z</time>
      </trkpt>
      <trkpt lat="42.67179" lon="9.29999">
        <ele>2.597</ele>
        <time>2019-10-16T09:23:10.001Z</time>
      </trkpt>
      <trkpt lat="42.6722" lon="9.29893">
        <ele>3.464</ele>
        <time>2019-10-16T09:23:46.001Z</time>
      </trkpt>
      <trkpt lat="42.67244" lon="9.29764">
        <ele>7.276</ele>
        <time>2019-10-16T09:24:19.001Z</time>
      </trkpt>
      <trkpt lat="42.67235" lon="9.29644">
        <ele>12.488</ele>
        <time>2019-10-16T09:24:52.001Z</time>
      </trkpt>
      <trkpt lat="42.6722" lon="9.29535">
        <ele>14.567</ele>
        <time>2019-10-16T09:25:25.001Z</time>
      </trkpt>
      <trkpt lat="42.67269" lon="9.2948">
        <ele>17.836</ele>
        <time>2019-10-16T09:25:58.001Z</time>
      </trkpt>
      <trkpt lat="42.67309" lon="9.29407">
        <ele>25.277</ele>
        <time>2019-10-16T09:26:31.001Z</time>
      </trkpt>
      <trkpt lat="42.67288" lon="9.29314">
        <ele>27.308</ele>
        <time>2019-10-16T09:27:01.001Z</time>
      </trkpt>
      <trkpt lat="42.67226" lon="9.29237">
        <ele>32.956</ele>
        <time>2019-10-16T09:27:34.001Z</time>
      </trkpt>
      <trkpt lat="42.6718" lon="9.29139">
        <ele>36.081</ele>
        <time>2019-10-16T09:28:07.001Z</time>
      </trkpt>
      <trkpt lat="42.67163" lon="9.29031">
        <ele>39.807</ele>
        <time>2019-10-16T09:28:40.001Z</time>
      </trkpt>
      <trkpt lat="42.6713" lon="9.28929">
        <ele>44.945</ele>
        <time>2019-10-16T09:29:13.001Z</time>
      </trkpt>
      <trkpt lat="42.67056" lon="9.2887">
        <ele>52.571</ele>
        <time>2019-10-16T09:29:46.001Z</time>
      </trkpt>
      <trkpt lat="42.66992" lon="9.28797">
        <ele>56.841</ele>
        <time>2019-10-16T09:30:19.001Z</time>
      </trkpt>
      <trkpt lat="42.66921" lon="9.28752">
        <ele>56.935</ele>
        <time>2019-10-16T09:30:49.001Z</time>
      </trkpt>
      <trkpt lat="42.66864" lon="9.28675">
        <ele>61.892</ele>
        <time>2019-10-16T09:31:22.001Z</time>
      </trkpt>
      <trkpt lat="42.6679" lon="9.28621">
        <ele>61.57</ele>
        <time>2019-10-16T09:31:55.001Z</time>
      </trkpt>
      <trkpt lat="42.66724" lon="9.28555">
        <ele>68.364</ele>
        <time>2019-10-16T09:32:28.001Z</time>
      </trkpt>
      <trkpt lat="42.66654" lon="9.28496">
        <ele>71.686</ele>
        <time>2019-10-16T09:33:01.001Z</time>
      </trkpt>
      <trkpt lat="42.66608" lon="9.28409">
        <ele>77.175</ele>
        <time>2019-10-16T09:33:34.001Z</time>
      </trkpt>
      <trkpt lat="42.66531" lon="9.2837">
        <ele>76.959</ele>
        <time>2019-10-16T09:34:07.001Z</time>
      </trkpt>
      <trkpt lat="42.66489" lon="9.28276">
        <ele>79.086</ele>
        <time>2019-10-16T09:34:40.001Z</time>
      </trkpt>
      <trkpt lat="42.66432" lon="9.28217">
        <ele>82.622</ele>
        <time>2019-10-16T09:35:10.001Z</time>
      </trkpt>
      <trkpt lat="42.66392" lon="9.28122">
        <ele>89.519</ele>
        <time>2019-10-16T09:35:43.001Z</time>
      </trkpt>
      <trkpt lat="42.6633" lon="9.28048">
        <ele>90.499</ele>
        <time>2019-10-16T09:36:16Z</time>
      </trkpt>
      <trkpt lat="42.66278" lon="9.27949">
        <ele>97.105</ele>
        <time>2019-10-16T09:36:49.001Z</time>
      </trkpt>
      <trkpt lat="42.6629" lon="9.27841">
        <ele>98.518</ele>
        <time>2019-10-16T09:37:22.001Z</time>
      </trkpt>
      <trkpt lat="42.66258" lon="9.27736">
        <ele>100.239</ele>
        <time>2019-10-16T09:37:55.001Z</time>
      </trkpt>
      <trkpt lat="42.6622" lon="9.27636">
        <ele>104.726</ele>
        <time>2019-10-16T09:38:28.001Z</time>
      </trkpt>
      <trkpt lat="42.66159" lon="9.27586">
        <ele>108.878</ele>
        <time>2019-10-16T09:39:01.001Z</time>
      </trkpt>
      <trkpt lat="42.66091" lon="9.27591">
        <ele>110.927</ele>
        <time>2019-10-16T09:39:31.001Z</time>
      </trkpt>
      <trkpt lat="42.66056" lon="9.27496">
        <ele>116.916</ele>
        <time>2019-10-16T09:40:04.001Z</time>
      </trkpt>
      <trkpt lat="42.66062" lon="9.2739">
        <ele>121.015</ele>
        <time>2019-10-16T09:40:37.001Z</time>
      </trkpt>
      <trkpt lat="42.66023" lon="9.27325">
        <ele>124.646</ele>
        <time>2019-10-16T09:41:10.001Z</time>
      </trkpt>
      <trkpt lat="42.65943" lon="9.27328">
        <ele>127.813</ele>
        <time>2019-10-16T09:41:43.001Z</time>
      </trkpt>
      <trkpt lat="42.65871" lon="9.27283">
        <ele>126.722</ele>
        <time>2019-10-16T09:42:16Z</time>
      </trkpt>
      <trkpt lat="42.65838" lon="9.27196">
        <ele>134.593</ele>
        <time>2019-10-16T09:42:49.001Z</time>
      </trkpt>
      <trkpt lat="42.65778" lon="9.27248">
        <ele>135.431</ele>
        <time>2019-10-16T09:43:22.001Z</time>
      </trkpt>
      <trkpt lat="42.65724" lon="9.27241">
        <ele>140.967</ele>
        <time>2019-10-16T09:43:52.001Z</time>
      </trkpt>
      <trkpt lat="42.65662" lon="9.27262">
        <ele>145.509</ele>
        <time>2019-10-16T09:44:25.001Z</time>
      </trkpt>
      <trkpt lat="42.65607" lon="9.27219">
        <ele>148.59</ele>
        <time>2019-10-16T09:54:19.001Z</time>
      </trkpt>
      <trkpt lat="42.65548" lon="9.27148">
        <ele>153.6</ele>
        <time>2019-10-16T09:54:52.001Z</time>
      </trkpt>
      <trkpt lat="42.65514" lon="9.2705">
        <ele>157.206</ele>
        <time>2019-10-16T09:55:25.001Z</time>
      </trkpt>
      <trkpt lat="42.65493" lon="9.26943">
        <ele>161.035</ele>
        <time>2019-10-16T09:55:58.001Z</time>
      </trkpt>
      <trkpt lat="42.655" lon="9.26834">
        <ele>164.34</ele>
        <time>2019-10-16T09:56:31.001Z</time>
      </trkpt>
      <trkpt lat="42.65472" lon="9.26747">
        <ele>166.433</ele>
        <time>2019-10-16T09:57:04.001Z</time>
      </trkpt>
      <trkpt lat="42.654" lon="9.26748">
        <ele>172.362</ele>
        <time>2019-10-16T09:57:34.001Z</time>
      </trkpt>
      <trkpt lat="42.65323" lon="9.26744">
        <ele>174.936</ele>
        <time>2019-10-16T09:58:07.001Z</time>
      </trkpt>
      <trkpt lat="42.6524" lon="9.2675">
        <ele>180.234</ele>
        <time>2019-10-16T09:58:40.001Z</time>
      </trkpt>
      <trkpt lat="42.65162" lon="9.26735">
        <ele>181.254</ele>
        <time>2019-10-16T09:59:13.001Z</time>
      </trkpt>
      <trkpt lat="42.65089" lon="9.26701">
        <ele>184.401</ele>
        <time>2019-10-16T09:59:46.001Z</time>
      </trkpt>
      <trkpt lat="42.65022" lon="9.26673">
        <ele>189.08</ele>
        <time>2019-10-16T10:00:19.001Z</time>
      </trkpt>
      <trkpt lat="42.64994" lon="9.26612">
        <ele>196.454</ele>
        <time>2019-10-16T10:00:52.001Z</time>
      </trkpt>
      <trkpt lat="42.65011" lon="9.26517">
        <ele>200.886</ele>
        <time>2019-10-16T10:01:25.001Z</time>
      </trkpt>
      <trkpt lat="42.65019" lon="9.26429">
        <ele>207.032</ele>
        <time>2019-10-16T10:01:55.001Z</time>
      </trkpt>
      <trkpt lat="42.65048" lon="9.26336">
        <ele>208.613</ele>
        <time>2019-10-16T10:02:28.001Z</time>
      </trkpt>
      <trkpt lat="42.6509" lon="9.26236">
        <ele>211.286</ele>
        <time>2019-10-16T10:03:01.001Z</time>
      </trkpt>
      <trkpt lat="42.65161" lon="9.26179">
        <ele>212.97</ele>
        <time>2019-10-16T10:03:34.001Z</time>
      </trkpt>
      <trkpt lat="42.65229" lon="9.26085">
        <ele>217.074</ele>
        <time>2019-10-16T10:04:07.001Z</time>
      </trkpt>
      <trkpt lat="42.65303" lon="9.25984">
        <ele>220.412</ele>
        <time>2019-10-16T10:04:40.001Z</time>
      </trkpt>
      <trkpt lat="42.65407" lon="9.2585">
        <ele>219.554</ele>
        <time>2019-10-16T10:05:13.001Z</time>
      </trkpt>
      <trkpt lat="42.65493" lon="9.25713">
        <ele>220.311</ele>
        <time>2019-10-16T10:05:43.001Z</time>
      </trkpt>
      <trkpt lat="42.65508" lon="9.25518">
        <ele>221.508</ele>
        <time>2019-10-16T10:06:16Z</time>
      </trkpt>
      <trkpt lat="42.65594" lon="9.25369">
        <ele>223.701</ele>
        <time>2019-10-16T10:06:49.001Z</time>
      </trkpt>
      <trkpt lat="42.65666" lon="9.25197">
        <ele>224.037</ele>
        <time>2019-10-16T10:07:22.001Z</time>
      </trkpt>
      <trkpt lat="42.6566" lon="9.25006">
        <ele>224.724</ele>
        <time>2019-10-16T10:07:55.001Z</time>
      </trkpt>
      <trkpt lat="42.65672" lon="9.24804">
        <ele>223.069</ele>
        <time>2019-10-16T10:08:28.001Z</time>
      </trkpt>
      <trkpt lat="42.65625" lon="9.24623">
        <ele>225.476</ele>
        <time>2019-10-16T10:09:01.001Z</time>
      </trkpt>
      <trkpt lat="42.65761" lon="9.24568">
        <ele>226.731</ele>
        <time>2019-10-16T10:09:34.001Z</time>
      </trkpt>
      <trkpt lat="42.65867" lon="9.24463">
        <ele>227.965</ele>
        <time>2019-10-16T10:10:04.001Z</time>
      </trkpt>
      <trkpt lat="42.65943" lon="9.24308">
        <ele>229.381</ele>
        <time>2019-10-16T10:10:37.001Z</time>
      </trkpt>
      <trkpt lat="42.66074" lon="9.24236">
        <ele>230.964</ele>
        <time>2019-10-16T10:11:10.001Z</time>
      </trkpt>
      <trkpt lat="42.66085" lon="9.24039">
        <ele>233.778</ele>
        <time>2019-10-16T10:11:43.001Z</time>
      </trkpt>
      <trkpt lat="42.66082" lon="9.2389">
        <ele>235.076</ele>
        <time>2019-10-16T10:12:16Z</time>
      </trkpt>
      <trkpt lat="42.6618" lon="9.23775">
        <ele>236.774</ele>
        <time>2019-10-16T10:12:49.001Z</time>
      </trkpt>
      <trkpt lat="42.6609" lon="9.23636">
        <ele>238.305</ele>
        <time>2019-10-16T10:13:22.001Z</time>
      </trkpt>
      <trkpt lat="42.65988" lon="9.23517">
        <ele>240.988</ele>
        <time>2019-10-16T10:13:55.001Z</time>
      </trkpt>
      <trkpt lat="42.65899" lon="9.23387">
        <ele>241.876</ele>
        <time>2019-10-16T10:14:25.001Z</time>
      </trkpt>
      <trkpt lat="42.65885" lon="9.23227">
        <ele>245.456</ele>
        <time>2019-10-16T10:14:58.001Z</time>
      </trkpt>
      <trkpt lat="42.66013" lon="9.2319">
        <ele>245.614</ele>
        <time>2019-10-16T10:15:31.001Z</time>
      </trkpt>
      <trkpt lat="42.66063" lon="9.23069">
        <ele>249.224</ele>
        <time>2019-10-16T10:16:04.001Z</time>
      </trkpt>
      <trkpt lat="42.66121" lon="9.22982">
        <ele>253.424</ele>
        <time>2019-10-16T10:16:37.001Z</time>
      </trkpt>
      <trkpt lat="42.66202" lon="9.23051">
        <ele>260.597</ele>
        <time>2019-10-16T10:17:10.001Z</time>
      </trkpt>
      <trkpt lat="42.66303" lon="9.23049">
        <ele>260.754</ele>
        <time>2019-10-16T10:17:43.001Z</time>
      </trkpt>
      <trkpt lat="42.66384" lon="9.22981">
        <ele>265.957</ele>
        <time>2019-10-16T10:18:16Z</time>
      </trkpt>
      <trkpt lat="42.66436" lon="9.22897">
        <ele>268.857</ele>
        <time>2019-10-16T10:18:46.001Z</time>
      </trkpt>
      <trkpt lat="42.66476" lon="9.22765">
        <ele>271.566</ele>
        <time>2019-10-16T10:19:19.001Z</time>
      </trkpt>
      <trkpt lat="42.66491" lon="9.22626">
        <ele>274.73</ele>
        <time>2019-10-16T10:19:52.001Z</time>
      </trkpt>
      <trkpt lat="42.66442" lon="9.22506">
        <ele>277.3</ele>
        <time>2019-10-16T10:20:25.001Z</time>
      </trkpt>
      <trkpt lat="42.66382" lon="9.22379">
        <ele>279.243</ele>
        <time>2019-10-16T10:20:58.001Z</time>
      </trkpt>
      <trkpt lat="42.66332" lon="9.22247">
        <ele>283.713</ele>
        <time>2019-10-16T10:21:31.001Z</time>
      </trkpt>
      <trkpt lat="42.66272" lon="9.22117">
        <ele>282.642</ele>
        <time>2019-10-16T10:22:04.001Z</time>
      </trkpt>
      <trkpt lat="42.6625" lon="9.21982">
        <ele>284.212</ele>
        <time>2019-10-16T10:22:37.001Z</time>
      </trkpt>
      <trkpt lat="42.6636" lon="9.21962">
        <ele>285.035</ele>
        <time>2019-10-16T10:23:07.001Z</time>
      </trkpt>
      <trkpt lat="42.6648" lon="9.21813">
        <ele>285.849</ele>
        <time>2019-10-16T10:23:40.001Z</time>
      </trkpt>
      <trkpt lat="42.66575" lon="9.21626">
        <ele>286.429</ele>
        <time>2019-10-16T10:24:13.001Z</time>
      </trkpt>
      <trkpt lat="42.66457" lon="9.21483">
        <ele>282.645</ele>
        <time>2019-10-16T10:24:46.001Z</time>
      </trkpt>
      <trkpt lat="42.66424" lon="9.21281">
        <ele>283.807</ele>
        <time>2019-10-16T10:25:19.001Z</time>
      </trkpt>
      <trkpt lat="42.6646" lon="9.21081">
        <ele>289.532</ele>
        <time>2019-10-16T10:25:52.001Z</time>
      </trkpt>
      <trkpt lat="42.66413" lon="9.20925">
        <ele>291.753</ele>
        <time>2019-10-16T10:26:25.001Z</time>
      </trkpt>
      <trkpt lat="42.6632" lon="9.20866">
        <ele>292.08</ele>
        <time>2019-10-16T10:26:58.001Z</time>
      </trkpt>
      <trkpt lat="42.66245" lon="9.20828">
        <ele>297.347</ele>
        <time>2019-10-16T10:27:28.001Z</time>
      </trkpt>
      <trkpt lat="42.66153" lon="9.2078">
        <ele>301.072</ele>
        <time>2019-10-16T10:28:01.001Z</time>
      </trkpt>
      <trkpt lat="42.6609" lon="9.20711">
        <ele>304.063</ele>
        <time>2019-10-16T10:28:34.001Z</time>
      </trkpt>
      <trkpt lat="42.66027" lon="9.20667">
        <ele>307.043</ele>
        <time>2019-10-16T10:29:07.001Z</time>
      </trkpt>
      <trkpt lat="42.65945" lon="9.20687">
        <ele>309.096</ele>
        <time>2019-10-16T10:29:40.001Z</time>
      </trkpt>
      <trkpt lat="42.65921" lon="9.20602">
        <ele>315.431</ele>
        <time>2019-10-16T10:30:13.001Z</time>
      </trkpt>
      <trkpt lat="42.65943" lon="9.20491">
        <ele>318.354</ele>
        <time>2019-10-16T10:30:46.001Z</time>
      </trkpt>
      <trkpt lat="42.65896" lon="9.20419">
        <ele>321.078</ele>
        <time>2019-10-16T10:31:19.001Z</time>
      </trkpt>
      <trkpt lat="42.65827" lon="9.20382">
        <ele>323.492</ele>
        <time>2019-10-16T10:31:49.001Z</time>
      </trkpt>
      <trkpt lat="42.65823" lon="9.2035">
        <ele>323.049</ele>
        <time>2019-10-16T10:33:25.001Z</time>
      </trkpt>
      <trkpt lat="42.65816" lon="9.20358">
        <ele>319.877</ele>
        <time>2019-10-16T10:34:34.001Z</time>
      </trkpt>
      <trkpt lat="42.65813" lon="9.20364">
        <ele>319.117</ele>
        <time>2019-10-16T10:45:52.001Z</time>
      </trkpt>
      <trkpt lat="42.65819" lon="9.20357">
        <ele>320.351</ele>
        <time>2019-10-16T11:31:55.001Z</time>
      </trkpt>
      <trkpt lat="42.65756" lon="9.2034">
        <ele>324.739</ele>
        <time>2019-10-16T11:36:01.001Z</time>
      </trkpt>
      <trkpt lat="42.65667" lon="9.20354">
        <ele>328.856</ele>
        <time>2019-10-16T11:36:34.001Z</time>
      </trkpt>
      <trkpt lat="42.65563" lon="9.20318">
        <ele>329.034</ele>
        <time>2019-10-16T11:37:04.001Z</time>
      </trkpt>
      <trkpt lat="42.65431" lon="9.20324">
        <ele>327.071</ele>
        <time>2019-10-16T11:37:37.001Z</time>
      </trkpt>
      <trkpt lat="42.65246" lon="9.20235">
        <ele>320.364</ele>
        <time>2019-10-16T11:38:10.001Z</time>
      </trkpt>
      <trkpt lat="42.65311" lon="9.2004">
        <ele>322.503</ele>
        <time>2019-10-16T11:38:43.001Z</time>
      </trkpt>
      <trkpt lat="42.6537" lon="9.19912">
        <ele>326.752</ele>
        <time>2019-10-16T11:39:16Z</time>
      </trkpt>
      <trkpt lat="42.65381" lon="9.19782">
        <ele>329.604</ele>
        <time>2019-10-16T11:39:49.001Z</time>
      </trkpt>
      <trkpt lat="42.65406" lon="9.19648">
        <ele>331.998</ele>
        <time>2019-10-16T11:40:22.001Z</time>
      </trkpt>
      <trkpt lat="42.65388" lon="9.19511">
        <ele>333.773</ele>
        <time>2019-10-16T11:40:55.001Z</time>
      </trkpt>
      <trkpt lat="42.65485" lon="9.19405">
        <ele>333.77</ele>
        <time>2019-10-16T11:41:25.001Z</time>
      </trkpt>
      <trkpt lat="42.65491" lon="9.19077">
        <ele>322.881</ele>
        <time>2019-10-16T11:41:58.001Z</time>
      </trkpt>
      <trkpt lat="42.65591" lon="9.19231">
        <ele>318.307</ele>
        <time>2019-10-16T11:42:31.001Z</time>
      </trkpt>
      <trkpt lat="42.65712" lon="9.19338">
        <ele>314.59</ele>
        <time>2019-10-16T11:43:04.001Z</time>
      </trkpt>
      <trkpt lat="42.65846" lon="9.19318">
        <ele>317.046</ele>
        <time>2019-10-16T11:43:37.001Z</time>
      </trkpt>
      <trkpt lat="42.65935" lon="9.19151">
        <ele>316.145</ele>
        <time>2019-10-16T11:44:10.001Z</time>
      </trkpt>
      <trkpt lat="42.65976" lon="9.18972">
        <ele>317.54</ele>
        <time>2019-10-16T11:44:43.001Z</time>
      </trkpt>
      <trkpt lat="42.65974" lon="9.18785">
        <ele>319.448</ele>
        <time>2019-10-16T11:45:16Z</time>
      </trkpt>
      <trkpt lat="42.66049" lon="9.18747">
        <ele>320.793</ele>
        <time>2019-10-16T11:47:16Z</time>
      </trkpt>
      <trkpt lat="42.6607" lon="9.18593">
        <ele>318.145</ele>
        <time>2019-10-16T11:47:49.001Z</time>
      </trkpt>
      <trkpt lat="42.66035" lon="9.18435">
        <ele>319.108</ele>
        <time>2019-10-16T11:48:22.001Z</time>
      </trkpt>
      <trkpt lat="42.65919" lon="9.18379">
        <ele>322.667</ele>
        <time>2019-10-16T11:48:55.001Z</time>
      </trkpt>
      <trkpt lat="42.65867" lon="9.18264">
        <ele>320.856</ele>
        <time>2019-10-16T11:49:28.001Z</time>
      </trkpt>
      <trkpt lat="42.65817" lon="9.18117">
        <ele>322.485</ele>
        <time>2019-10-16T11:50:01.001Z</time>
      </trkpt>
      <trkpt lat="42.65721" lon="9.18057">
        <ele>326.701</ele>
        <time>2019-10-16T11:50:34.001Z</time>
      </trkpt>
      <trkpt lat="42.65654" lon="9.17956">
        <ele>327.548</ele>
        <time>2019-10-16T11:51:07.001Z</time>
      </trkpt>
      <trkpt lat="42.65558" lon="9.17993">
        <ele>330.41</ele>
        <time>2019-10-16T11:51:37.001Z</time>
      </trkpt>
      <trkpt lat="42.65459" lon="9.18042">
        <ele>335.186</ele>
        <time>2019-10-16T11:52:10.001Z</time>
      </trkpt>
      <trkpt lat="42.65448" lon="9.17926">
        <ele>342.264</ele>
        <time>2019-10-16T11:52:43.001Z</time>
      </trkpt>
      <trkpt lat="42.65513" lon="9.17794">
        <ele>338.897</ele>
        <time>2019-10-16T11:53:16Z</time>
      </trkpt>
      <trkpt lat="42.6555" lon="9.17648">
        <ele>341.15</ele>
        <time>2019-10-16T11:53:49.001Z</time>
      </trkpt>
      <trkpt lat="42.65595" lon="9.17513">
        <ele>345.698</ele>
        <time>2019-10-16T11:54:22.001Z</time>
      </trkpt>
      <trkpt lat="42.65557" lon="9.17384">
        <ele>346.83</ele>
        <time>2019-10-16T11:54:55.001Z</time>
      </trkpt>
      <trkpt lat="42.65488" lon="9.17272">
        <ele>346.766</ele>
        <time>2019-10-16T11:55:28.001Z</time>
      </trkpt>
      <trkpt lat="42.6553" lon="9.17111">
        <ele>344.446</ele>
        <time>2019-10-16T11:55:58.001Z</time>
      </trkpt>
      <trkpt lat="42.65449" lon="9.16895">
        <ele>336.807</ele>
        <time>2019-10-16T11:56:31.001Z</time>
      </trkpt>
      <trkpt lat="42.65368" lon="9.167">
        <ele>330.497</ele>
        <time>2019-10-16T11:57:04.001Z</time>
      </trkpt>
      <trkpt lat="42.65342" lon="9.16419">
        <ele>325.461</ele>
        <time>2019-10-16T11:57:37.001Z</time>
      </trkpt>
      <trkpt lat="42.6539" lon="9.16178">
        <ele>321.426</ele>
        <time>2019-10-16T11:58:10.001Z</time>
      </trkpt>
      <trkpt lat="42.65453" lon="9.16286">
        <ele>326.226</ele>
        <time>2019-10-16T11:58:43.001Z</time>
      </trkpt>
      <trkpt lat="42.65527" lon="9.16344">
        <ele>333.029</ele>
        <time>2019-10-16T11:59:16Z</time>
      </trkpt>
      <trkpt lat="42.65601" lon="9.16297">
        <ele>335.45</ele>
        <time>2019-10-16T11:59:49.001Z</time>
      </trkpt>
      <trkpt lat="42.65648" lon="9.16223">
        <ele>340.909</ele>
        <time>2019-10-16T12:00:19.001Z</time>
      </trkpt>
      <trkpt lat="42.65661" lon="9.16125">
        <ele>342.188</ele>
        <time>2019-10-16T12:00:52.001Z</time>
      </trkpt>
      <trkpt lat="42.65726" lon="9.16112">
        <ele>346.969</ele>
        <time>2019-10-16T12:01:25.001Z</time>
      </trkpt>
      <trkpt lat="42.65783" lon="9.16036">
        <ele>349.784</ele>
        <time>2019-10-16T12:01:58.001Z</time>
      </trkpt>
      <trkpt lat="42.65812" lon="9.15937">
        <ele>352.405</ele>
        <time>2019-10-16T12:02:31.001Z</time>
      </trkpt>
      <trkpt lat="42.65881" lon="9.15896">
        <ele>356.324</ele>
        <time>2019-10-16T12:03:04.001Z</time>
      </trkpt>
      <trkpt lat="42.6593" lon="9.15802">
        <ele>361.055</ele>
        <time>2019-10-16T12:03:37.001Z</time>
      </trkpt>
      <trkpt lat="42.65962" lon="9.15683">
        <ele>360.993</ele>
        <time>2019-10-16T12:04:07.001Z</time>
      </trkpt>
      <trkpt lat="42.66059" lon="9.15676">
        <ele>360.291</ele>
        <time>2019-10-16T12:04:40.001Z</time>
      </trkpt>
      <trkpt lat="42.66145" lon="9.15732">
        <ele>362.142</ele>
        <time>2019-10-16T12:05:13.001Z</time>
      </trkpt>
      <trkpt lat="42.66305" lon="9.15578">
        <ele>354.624</ele>
        <time>2019-10-16T12:05:46.001Z</time>
      </trkpt>
      <trkpt lat="42.66527" lon="9.15407">
        <ele>338.133</ele>
        <time>2019-10-16T12:06:19.001Z</time>
      </trkpt>
      <trkpt lat="42.66605" lon="9.15105">
        <ele>321.136</ele>
        <time>2019-10-16T12:06:52.001Z</time>
      </trkpt>
      <trkpt lat="42.66646" lon="9.14936">
        <ele>322.009</ele>
        <time>2019-10-16T12:07:25.001Z</time>
      </trkpt>
      <trkpt lat="42.66719" lon="9.14845">
        <ele>320.383</ele>
        <time>2019-10-16T12:07:58.001Z</time>
      </trkpt>
      <trkpt lat="42.66662" lon="9.14687">
        <ele>319.153</ele>
        <time>2019-10-16T12:08:28.001Z</time>
      </trkpt>
      <trkpt lat="42.66666" lon="9.14469">
        <ele>315.895</ele>
        <time>2019-10-16T12:09:01.001Z</time>
      </trkpt>
      <trkpt lat="42.66626" lon="9.14279">
        <ele>311.995</ele>
        <time>2019-10-16T12:09:34.001Z</time>
      </trkpt>
      <trkpt lat="42.66589" lon="9.14086">
        <ele>309.102</ele>
        <time>2019-10-16T12:10:07.001Z</time>
      </trkpt>
      <trkpt lat="42.66476" lon="9.13826">
        <ele>305.988</ele>
        <time>2019-10-16T12:10:40.001Z</time>
      </trkpt>
      <trkpt lat="42.66307" lon="9.13558">
        <ele>285.859</ele>
        <time>2019-10-16T12:11:13.001Z</time>
      </trkpt>
      <trkpt lat="42.66202" lon="9.13298">
        <ele>264.026</ele>
        <time>2019-10-16T12:11:46.001Z</time>
      </trkpt>
      <trkpt lat="42.66162" lon="9.13022">
        <ele>252.208</ele>
        <time>2019-10-16T12:12:19.001Z</time>
      </trkpt>
      <trkpt lat="42.66129" lon="9.12755">
        <ele>240.814</ele>
        <time>2019-10-16T12:12:49.001Z</time>
      </trkpt>
      <trkpt lat="42.66004" lon="9.12366">
        <ele>225.667</ele>
        <time>2019-10-16T12:13:22.001Z</time>
      </trkpt>
      <trkpt lat="42.65819" lon="9.12131">
        <ele>208.547</ele>
        <time>2019-10-16T12:13:55.001Z</time>
      </trkpt>
      <trkpt lat="42.65829" lon="9.11765">
        <ele>188.588</ele>
        <time>2019-10-16T12:14:28.001Z</time>
      </trkpt>
      <trkpt lat="42.65842" lon="9.11466">
        <ele>169.16</ele>
        <time>2019-10-16T12:15:01.001Z</time>
      </trkpt>
      <trkpt lat="42.6553" lon="9.11577">
        <ele>156.033</ele>
        <time>2019-10-16T12:15:34.001Z</time>
      </trkpt>
      <trkpt lat="42.65249" lon="9.11297">
        <ele>133.168</ele>
        <time>2019-10-16T12:16:07.001Z</time>
      </trkpt>
      <trkpt lat="42.65404" lon="9.11019">
        <ele>119.662</ele>
        <time>2019-10-16T12:16:40.001Z</time>
      </trkpt>
      <trkpt lat="42.65264" lon="9.10798">
        <ele>105.324</ele>
        <time>2019-10-16T12:17:10.001Z</time>
      </trkpt>
      <trkpt lat="42.65141" lon="9.10699">
        <ele>89.138</ele>
        <time>2019-10-16T12:17:43.001Z</time>
      </trkpt>
      <trkpt lat="42.64893" lon="9.10696">
        <ele>70.269</ele>
        <time>2019-10-16T12:18:16Z</time>
      </trkpt>
      <trkpt lat="42.64836" lon="9.10463">
        <ele>67.813</ele>
        <time>2019-10-16T12:18:49.001Z</time>
      </trkpt>
      <trkpt lat="42.64676" lon="9.10413">
        <ele>63.613</ele>
        <time>2019-10-16T12:19:22.001Z</time>
      </trkpt>
      <trkpt lat="42.64616" lon="9.10191">
        <ele>62.875</ele>
        <time>2019-10-16T12:19:55.001Z</time>
      </trkpt>
      <trkpt lat="42.64728" lon="9.09995">
        <ele>55.696</ele>
        <time>2019-10-16T12:20:28.001Z</time>
      </trkpt>
      <trkpt lat="42.64705" lon="9.09817">
        <ele>46.529</ele>
        <time>2019-10-16T12:21:01.001Z</time>
      </trkpt>
      <trkpt lat="42.64656" lon="9.09598">
        <ele>46.026</ele>
        <time>2019-10-16T12:21:31.001Z</time>
      </trkpt>
      <trkpt lat="42.64662" lon="9.09329">
        <ele>41.659</ele>
        <time>2019-10-16T12:22:04.001Z</time>
      </trkpt>
      <trkpt lat="42.6478" lon="9.09121">
        <ele>40.661</ele>
        <time>2019-10-16T12:22:37.001Z</time>
      </trkpt>
      <trkpt lat="42.64971" lon="9.08989">
        <ele>37.652</ele>
        <time>2019-10-16T12:23:10.001Z</time>
      </trkpt>
      <trkpt lat="42.65023" lon="9.0865">
        <ele>29.655</ele>
        <time>2019-10-16T12:23:43.001Z</time>
      </trkpt>
      <trkpt lat="42.65089" lon="9.08275">
        <ele>16.005</ele>
        <time>2019-10-16T12:24:16Z</time>
      </trkpt>
      <trkpt lat="42.65142" lon="9.07971">
        <ele>9.282</ele>
        <time>2019-10-16T12:24:49.001Z</time>
      </trkpt>
      <trkpt lat="42.65186" lon="9.07721">
        <ele>5.803</ele>
        <time>2019-10-16T12:25:22.001Z</time>
      </trkpt>
      <trkpt lat="42.65217" lon="9.07535">
        <ele>9.985</ele>
        <time>2019-10-16T12:25:52.001Z</time>
      </trkpt>
      <trkpt lat="42.6525" lon="9.07357">
        <ele>13.053</ele>
        <time>2019-10-16T12:26:25.001Z</time>
      </trkpt>
      <trkpt lat="42.65281" lon="9.07174">
        <ele>13.642</ele>
        <time>2019-10-16T12:26:58.001Z</time>
      </trkpt>
      <trkpt lat="42.65313" lon="9.06998">
        <ele>13.065</ele>
        <time>2019-10-16T12:27:31.001Z</time>
      </trkpt>
      <trkpt lat="42.65332" lon="9.06858">
        <ele>16.614</ele>
        <time>2019-10-16T12:28:04.001Z</time>
      </trkpt>
      <trkpt lat="42.65338" lon="9.06734">
        <ele>17.95</ele>
        <time>2019-10-16T12:28:37.001Z</time>
      </trkpt>
      <trkpt lat="42.65337" lon="9.06612">
        <ele>19.594</ele>
        <time>2019-10-16T12:29:10.001Z</time>
      </trkpt>
      <trkpt lat="42.65335" lon="9.06503">
        <ele>21.858</ele>
        <time>2019-10-16T12:29:43.001Z</time>
      </trkpt>
      <trkpt lat="42.65334" lon="9.0641">
        <ele>26.744</ele>
        <time>2019-10-16T12:30:13.001Z</time>
      </trkpt>
      <trkpt lat="42.65333" lon="9.06314">
        <ele>31.518</ele>
        <time>2019-10-16T12:30:46.001Z</time>
      </trkpt>
      <trkpt lat="42.65335" lon="9.06211">
        <ele>33.719</ele>
        <time>2019-10-16T12:31:19.001Z</time>
      </trkpt>
      <trkpt lat="42.65337" lon="9.06124">
        <ele>38.356</ele>
        <time>2019-10-16T12:31:52.001Z</time>
      </trkpt>
      <trkpt lat="42.65352" lon="9.06047">
        <ele>44.495</ele>
        <time>2019-10-16T12:32:25.001Z</time>
      </trkpt>
      <trkpt lat="42.65376" lon="9.05972">
        <ele>47.675</ele>
        <time>2019-10-16T12:32:58.001Z</time>
      </trkpt>
      <trkpt lat="42.65416" lon="9.05904">
        <ele>53.008</ele>
        <time>2019-10-16T12:33:31.001Z</time>
      </trkpt>
      <trkpt lat="42.6546" lon="9.05841">
        <ele>55.032</ele>
        <time>2019-10-16T12:34:01.001Z</time>
      </trkpt>
      <trkpt lat="42.65512" lon="9.05756">
        <ele>58.257</ele>
        <time>2019-10-16T12:34:34.001Z</time>
      </trkpt>
      <trkpt lat="42.65599" lon="9.05627">
        <ele>54.145</ele>
        <time>2019-10-16T12:35:07.001Z</time>
      </trkpt>
      <trkpt lat="42.65701" lon="9.05304">
        <ele>45.032</ele>
        <time>2019-10-16T12:35:40.001Z</time>
      </trkpt>
      <trkpt lat="42.65611" lon="9.05034">
        <ele>34.932</ele>
        <time>2019-10-16T12:36:13.001Z</time>
      </trkpt>
      <trkpt lat="42.65571" lon="9.04846">
        <ele>34.966</ele>
        <time>2019-10-16T12:36:46.001Z</time>
      </trkpt>
      <trkpt lat="42.65513" lon="9.04725">
        <ele>39.937</ele>
        <time>2019-10-16T12:37:19.001Z</time>
      </trkpt>
      <trkpt lat="42.65426" lon="9.0461">
        <ele>41.165</ele>
        <time>2019-10-16T12:37:52.001Z</time>
      </trkpt>
      <trkpt lat="42.65361" lon="9.0449">
        <ele>38.753</ele>
        <time>2019-10-16T12:38:22.001Z</time>
      </trkpt>
      <trkpt lat="42.65313" lon="9.04362">
        <ele>41.176</ele>
        <time>2019-10-16T12:38:55.001Z</time>
      </trkpt>
      <trkpt lat="42.65287" lon="9.0428">
        <ele>40.148</ele>
        <time>2019-10-16T12:46:13.001Z</time>
      </trkpt>
      <trkpt lat="42.65247" lon="9.04152">
        <ele>43.283</ele>
        <time>2019-10-16T12:46:46.001Z</time>
      </trkpt>
      <trkpt lat="42.65226" lon="9.04004">
        <ele>48.369</ele>
        <time>2019-10-16T12:47:19.001Z</time>
      </trkpt>
      <trkpt lat="42.65244" lon="9.03854">
        <ele>51.851</ele>
        <time>2019-10-16T12:47:52.001Z</time>
      </trkpt>
      <trkpt lat="42.65301" lon="9.03698">
        <ele>47.485</ele>
        <time>2019-10-16T12:48:25.001Z</time>
      </trkpt>
      <trkpt lat="42.65335" lon="9.03536">
        <ele>51.014</ele>
        <time>2019-10-16T12:48:58.001Z</time>
      </trkpt>
      <trkpt lat="42.65286" lon="9.03396">
        <ele>57.414</ele>
        <time>2019-10-16T12:49:28.001Z</time>
      </trkpt>
      <trkpt lat="42.65228" lon="9.03222">
        <ele>53.648</ele>
        <time>2019-10-16T12:50:01.001Z</time>
      </trkpt>
      <trkpt lat="42.65237" lon="9.03046">
        <ele>51.328</ele>
        <time>2019-10-16T12:50:34.001Z</time>
      </trkpt>
      <trkpt lat="42.65211" lon="9.02919">
        <ele>56.374</ele>
        <time>2019-10-16T12:51:07.001Z</time>
      </trkpt>
      <trkpt lat="42.6516" lon="9.0284">
        <ele>58.899</ele>
        <time>2019-10-16T12:51:40.001Z</time>
      </trkpt>
      <trkpt lat="42.65097" lon="9.02791">
        <ele>65.294</ele>
        <time>2019-10-16T12:52:13.001Z</time>
      </trkpt>
      <trkpt lat="42.65041" lon="9.0274">
        <ele>72.047</ele>
        <time>2019-10-16T12:52:46.001Z</time>
      </trkpt>
      <trkpt lat="42.64967" lon="9.027">
        <ele>71.742</ele>
        <time>2019-10-16T12:53:19.001Z</time>
      </trkpt>
      <trkpt lat="42.6489" lon="9.02663">
        <ele>72.799</ele>
        <time>2019-10-16T12:53:49.001Z</time>
      </trkpt>
      <trkpt lat="42.64812" lon="9.02586">
        <ele>77.768</ele>
        <time>2019-10-16T12:54:22.001Z</time>
      </trkpt>
      <trkpt lat="42.64774" lon="9.02548">
        <ele>75.762</ele>
        <time>2019-10-16T12:57:01.001Z</time>
      </trkpt>
      <trkpt lat="42.6453" lon="9.02371">
        <ele>61.025</ele>
        <time>2019-10-16T12:57:34.001Z</time>
      </trkpt>
      <trkpt lat="42.64181" lon="9.02302">
        <ele>30.126</ele>
        <time>2019-10-16T12:58:07.001Z</time>
      </trkpt>
      <trkpt lat="42.63921" lon="9.02166">
        <ele>17.715</ele>
        <time>2019-10-16T12:58:40.001Z</time>
      </trkpt>
      <trkpt lat="42.63811" lon="9.01919">
        <ele>13.434</ele>
        <time>2019-10-16T12:59:13.001Z</time>
      </trkpt>
      <trkpt lat="42.63814" lon="9.01653">
        <ele>8.096</ele>
        <time>2019-10-16T12:59:46.001Z</time>
      </trkpt>
      <trkpt lat="42.63722" lon="9.01419">
        <ele>0.772</ele>
        <time>2019-10-16T13:00:16Z</time>
      </trkpt>
      <trkpt lat="42.63637" lon="9.01201">
        <ele>1.4</ele>
        <time>2019-10-16T13:00:49.001Z</time>
      </trkpt>
      <trkpt lat="42.6359" lon="9.0103">
        <ele>2.968</ele>
        <time>2019-10-16T13:01:22.001Z</time>
      </trkpt>
      <trkpt lat="42.6355" lon="9.00865">
        <ele>3.996</ele>
        <time>2019-10-16T13:01:55.001Z</time>
      </trkpt>
      <trkpt lat="42.63609" lon="9.00697">
        <ele>6.786</ele>
        <time>2019-10-16T13:02:28.001Z</time>
      </trkpt>
      <trkpt lat="42.63653" lon="9.00599">
        <ele>14.247</ele>
        <time>2019-10-16T13:03:01.001Z</time>
      </trkpt>
      <trkpt lat="42.63698" lon="9.00509">
        <ele>19.173</ele>
        <time>2019-10-16T13:03:34.001Z</time>
      </trkpt>
      <trkpt lat="42.63765" lon="9.00451">
        <ele>21.183</ele>
        <time>2019-10-16T13:04:07.001Z</time>
      </trkpt>
      <trkpt lat="42.63834" lon="9.00453">
        <ele>24.427</ele>
        <time>2019-10-16T13:04:37.001Z</time>
      </trkpt>
      <trkpt lat="42.6391" lon="9.00433">
        <ele>28.154</ele>
        <time>2019-10-16T13:05:10.001Z</time>
      </trkpt>
      <trkpt lat="42.63985" lon="9.00385">
        <ele>29.974</ele>
        <time>2019-10-16T13:05:43.001Z</time>
      </trkpt>
      <trkpt lat="42.64055" lon="9.00329">
        <ele>35.636</ele>
        <time>2019-10-16T13:06:16Z</time>
      </trkpt>
      <trkpt lat="42.64088" lon="9.00221">
        <ele>36.797</ele>
        <time>2019-10-16T13:06:49.001Z</time>
      </trkpt>
      <trkpt lat="42.6407" lon="9.00082">
        <ele>37.42</ele>
        <time>2019-10-16T13:07:22.001Z</time>
      </trkpt>
      <trkpt lat="42.64019" lon="8.99935">
        <ele>39.122</ele>
        <time>2019-10-16T13:07:55.001Z</time>
      </trkpt>
      <trkpt lat="42.63969" lon="8.99797">
        <ele>41.975</ele>
        <time>2019-10-16T13:08:25.001Z</time>
      </trkpt>
      <trkpt lat="42.63928" lon="8.99588">
        <ele>39.833</ele>
        <time>2019-10-16T13:08:58.001Z</time>
      </trkpt>
      <trkpt lat="42.63883" lon="8.99339">
        <ele>32.888</ele>
        <time>2019-10-16T13:09:31.001Z</time>
      </trkpt>
      <trkpt lat="42.63814" lon="8.99082">
        <ele>28.859</ele>
        <time>2019-10-16T13:10:04.001Z</time>
      </trkpt>
      <trkpt lat="42.63802" lon="8.98869">
        <ele>26.846</ele>
        <time>2019-10-16T13:10:37.001Z</time>
      </trkpt>
      <trkpt lat="42.63794" lon="8.98612">
        <ele>21.277</ele>
        <time>2019-10-16T13:11:10.001Z</time>
      </trkpt>
      <trkpt lat="42.63827" lon="8.98299">
        <ele>15.901</ele>
        <time>2019-10-16T13:11:43.001Z</time>
      </trkpt>
      <trkpt lat="42.63906" lon="8.98061">
        <ele>13.563</ele>
        <time>2019-10-16T13:12:16Z</time>
      </trkpt>
      <trkpt lat="42.63834" lon="8.97835">
        <ele>8.893</ele>
        <time>2019-10-16T13:12:46.001Z</time>
      </trkpt>
      <trkpt lat="42.63716" lon="8.97678">
        <ele>9.685</ele>
        <time>2019-10-16T13:13:19.001Z</time>
      </trkpt>
      <trkpt lat="42.63729" lon="8.97585">
        <ele>16.761</ele>
        <time>2019-10-16T13:13:52.001Z</time>
      </trkpt>
      <trkpt lat="42.63785" lon="8.97539">
        <ele>20.903</ele>
        <time>2019-10-16T13:14:25.001Z</time>
      </trkpt>
      <trkpt lat="42.63843" lon="8.97492">
        <ele>24.077</ele>
        <time>2019-10-16T13:14:58.001Z</time>
      </trkpt>
      <trkpt lat="42.63877" lon="8.97422">
        <ele>29.7</ele>
        <time>2019-10-16T13:15:31.001Z</time>
      </trkpt>
      <trkpt lat="42.63885" lon="8.97333">
        <ele>34.505</ele>
        <time>2019-10-16T13:16:04.001Z</time>
      </trkpt>
      <trkpt lat="42.63861" lon="8.97231">
        <ele>35.029</ele>
        <time>2019-10-16T13:16:37.001Z</time>
      </trkpt>
      <trkpt lat="42.63781" lon="8.97112">
        <ele>34.981</ele>
        <time>2019-10-16T13:17:07.001Z</time>
      </trkpt>
      <trkpt lat="42.63702" lon="8.96932">
        <ele>36.018</ele>
        <time>2019-10-16T13:17:40.001Z</time>
      </trkpt>
      <trkpt lat="42.63581" lon="8.96692">
        <ele>28.552</ele>
        <time>2019-10-16T13:18:13.001Z</time>
      </trkpt>
      <trkpt lat="42.63424" lon="8.9645">
        <ele>17.031</ele>
        <time>2019-10-16T13:18:46.001Z</time>
      </trkpt>
      <trkpt lat="42.63259" lon="8.9622">
        <ele>11.546</ele>
        <time>2019-10-16T13:19:19.001Z</time>
      </trkpt>
      <trkpt lat="42.63181" lon="8.9608">
        <ele>17.172</ele>
        <time>2019-10-16T13:19:52.001Z</time>
      </trkpt>
      <trkpt lat="42.6314" lon="8.95989">
        <ele>25.151</ele>
        <time>2019-10-16T13:20:25.001Z</time>
      </trkpt>
      <trkpt lat="42.63136" lon="8.95889">
        <ele>28.544</ele>
        <time>2019-10-16T13:20:58.001Z</time>
      </trkpt>
      <trkpt lat="42.63138" lon="8.95798">
        <ele>32.293</ele>
        <time>2019-10-16T13:21:28.001Z</time>
      </trkpt>
      <trkpt lat="42.63139" lon="8.95698">
        <ele>39.53</ele>
        <time>2019-10-16T13:22:01.001Z</time>
      </trkpt>
      <trkpt lat="42.63143" lon="8.95598">
        <ele>43.675</ele>
        <time>2019-10-16T13:22:34.001Z</time>
      </trkpt>
      <trkpt lat="42.63131" lon="8.95491">
        <ele>47.847</ele>
        <time>2019-10-16T13:23:07.001Z</time>
      </trkpt>
      <trkpt lat="42.63115" lon="8.95348">
        <ele>43.796</ele>
        <time>2019-10-16T13:23:40.001Z</time>
      </trkpt>
      <trkpt lat="42.63099" lon="8.95094">
        <ele>38.918</ele>
        <time>2019-10-16T13:24:13.001Z</time>
      </trkpt>
      <trkpt lat="42.63172" lon="8.94729">
        <ele>17.711</ele>
        <time>2019-10-16T13:24:46.001Z</time>
      </trkpt>
      <trkpt lat="42.63219" lon="8.94345">
        <ele>3.327</ele>
        <time>2019-10-16T13:25:19.001Z</time>
      </trkpt>
      <trkpt lat="42.63236" lon="8.94176">
        <ele>6.872</ele>
        <time>2019-10-16T13:25:49.001Z</time>
      </trkpt>
      <trkpt lat="42.63252" lon="8.94094">
        <ele>21.186</ele>
        <time>2019-10-16T13:26:49.001Z</time>
      </trkpt>
      <trkpt lat="42.63267" lon="8.93933">
        <ele>22.672</ele>
        <time>2019-10-16T13:27:25.001Z</time>
      </trkpt>
      <trkpt lat="42.63266" lon="8.93789">
        <ele>22.293</ele>
        <time>2019-10-16T13:32:52.001Z</time>
      </trkpt>
      <trkpt lat="42.63258" lon="8.93774">
        <ele>25.529</ele>
        <time>2019-10-16T13:34:16Z</time>
      </trkpt>
      <trkpt lat="42.63169" lon="8.93771">
        <ele>26.962</ele>
        <time>2019-10-16T13:34:49.001Z</time>
      </trkpt>
      <trkpt lat="42.63166" lon="8.93914">
        <ele>12.744</ele>
        <time>2019-10-16T13:35:22.001Z</time>
      </trkpt>
      <trkpt lat="42.6316" lon="8.94028">
        <ele>12.596</ele>
        <time>2019-10-16T13:35:55.001Z</time>
      </trkpt>
      <trkpt lat="42.63082" lon="8.9406">
        <ele>18.941</ele>
        <time>2019-10-16T13:36:25.001Z</time>
      </trkpt>
      <trkpt lat="42.63" lon="8.94099">
        <ele>21.953</ele>
        <time>2019-10-16T13:36:58.001Z</time>
      </trkpt>
      <trkpt lat="42.62927" lon="8.94157">
        <ele>25.812</ele>
        <time>2019-10-16T13:37:31.001Z</time>
      </trkpt>
      <trkpt lat="42.62934" lon="8.94275">
        <ele>25.185</ele>
        <time>2019-10-16T13:38:04.001Z</time>
      </trkpt>
      <trkpt lat="42.62885" lon="8.94334">
        <ele>41.06</ele>
        <time>2019-10-16T13:38:49.001Z</time>
      </trkpt>
      <trkpt lat="42.62821" lon="8.94321">
        <ele>45.488</ele>
        <time>2019-10-16T13:39:25.001Z</time>
      </trkpt>
      <trkpt lat="42.62793" lon="8.94357">
        <ele>48.232</ele>
        <time>2019-10-16T13:40:40.001Z</time>
      </trkpt>
      <trkpt lat="42.62781" lon="8.94399">
        <ele>50.584</ele>
        <time>2019-10-16T13:41:25.001Z</time>
      </trkpt>
      <trkpt lat="42.62737" lon="8.94376">
        <ele>60.172</ele>
        <time>2019-10-16T13:42:28.001Z</time>
      </trkpt>
      <trkpt lat="42.62704" lon="8.94288">
        <ele>58.177</ele>
        <time>2019-10-16T13:43:31.001Z</time>
      </trkpt>
      <trkpt lat="42.62671" lon="8.94343">
        <ele>63.781</ele>
        <time>2019-10-16T13:44:28.001Z</time>
      </trkpt>
      <trkpt lat="42.62665" lon="8.94421">
        <ele>64.571</ele>
        <time>2019-10-16T13:45:10.001Z</time>
      </trkpt>
      <trkpt lat="42.62631" lon="8.94432">
        <ele>75.752</ele>
        <time>2019-10-16T13:46:01.001Z</time>
      </trkpt>
      <trkpt lat="42.62627" lon="8.94453">
        <ele>74.297</ele>
        <time>2019-10-16T13:46:55.001Z</time>
      </trkpt>
      <trkpt lat="42.6267" lon="8.9461">
        <ele>70.483</ele>
        <time>2019-10-16T13:47:28.001Z</time>
      </trkpt>
      <trkpt lat="42.62708" lon="8.94655">
        <ele>71.488</ele>
        <time>2019-10-16T13:48:37.001Z</time>
      </trkpt>
      <trkpt lat="42.62797" lon="8.94688">
        <ele>76.047</ele>
        <time>2019-10-16T13:49:10.001Z</time>
      </trkpt>
      <trkpt lat="42.62811" lon="8.94779">
        <ele>78.043</ele>
        <time>2019-10-16T13:49:43.001Z</time>
      </trkpt>
      <trkpt lat="42.62778" lon="8.94804">
        <ele>87.377</ele>
        <time>2019-10-16T14:00:44.001Z</time>
      </trkpt>
      <trkpt lat="42.62648" lon="8.94774">
        <ele>86.215</ele>
        <time>2019-10-16T14:01:17.001Z</time>
      </trkpt>
      <trkpt lat="42.62648" lon="8.94879">
        <ele>88.096</ele>
        <time>2019-10-16T14:01:50.001Z</time>
      </trkpt>
      <trkpt lat="42.62634" lon="8.94959">
        <ele>93.28</ele>
        <time>2019-10-16T14:02:23.001Z</time>
      </trkpt>
      <trkpt lat="42.62564" lon="8.95029">
        <ele>93.879</ele>
        <time>2019-10-16T14:02:56.001Z</time>
      </trkpt>
      <trkpt lat="42.6249" lon="8.9505">
        <ele>94.295</ele>
        <time>2019-10-16T14:03:26.001Z</time>
      </trkpt>
      <trkpt lat="42.62414" lon="8.95099">
        <ele>99.116</ele>
        <time>2019-10-16T14:03:59.001Z</time>
      </trkpt>
      <trkpt lat="42.62368" lon="8.95191">
        <ele>102.424</ele>
        <time>2019-10-16T14:04:32.001Z</time>
      </trkpt>
      <trkpt lat="42.62305" lon="8.95195">
        <ele>110.679</ele>
        <time>2019-10-16T14:05:05.001Z</time>
      </trkpt>
      <trkpt lat="42.62267" lon="8.95131">
        <ele>116.244</ele>
        <time>2019-10-16T14:05:38.001Z</time>
      </trkpt>
      <trkpt lat="42.62231" lon="8.95065">
        <ele>120.075</ele>
        <time>2019-10-16T14:06:11.001Z</time>
      </trkpt>
      <trkpt lat="42.62197" lon="8.95002">
        <ele>121.555</ele>
        <time>2019-10-16T14:06:44.001Z</time>
      </trkpt>
      <trkpt lat="42.6231" lon="8.94885">
        <ele>118.622</ele>
        <time>2019-10-16T14:07:20.001Z</time>
      </trkpt>
    </trkseg>
  </trk>
</gpx>